sensor_id;sensor_type;location;lat;lon;timestamp;temperature;humidity
3790;DHT22;1910;49.042;9.028;2023-01-16T00:02:13;3.40;99.90
3790;DHT22;1910;49.042;9.028;2023-01-16T00:04:38;3.40;99.90
3790;DHT22;1910;49.042;9.028;2023-01-16T00:07:04;3.40;99.90
3790;DHT22;1910;49.042;9.028;2023-01-16T00:09:29;3.40;99.90
3790;DHT22;1910;49.042;9.028;2023-01-16T00:11:55;3.30;99.90
3790;DHT22;1910;49.042;9.028;2023-01-16T00:14:20;3.30;99.90
3790;DHT22;1910;49.042;9.028;2023-01-16T00:16:46;3.40;99.90
3790;DHT22;1910;49.042;9.028;2023-01-16T00:19:11;3.40;99.90
3790;DHT22;1910;49.042;9.028;2023-01-16T00:21:37;3.40;99.90
3790;DHT22;1910;49.042;9.028;2023-01-16T00:24:03;3.40;99.90
3790;DHT22;1910;49.042;9.028;2023-01-16T00:26:29;3.40;99.90
3790;DHT22;1910;49.042;9.028;2023-01-16T00:28:55;3.40;99.90
3790;DHT22;1910;49.042;9.028;2023-01-16T00:31:21;3.40;99.90
3790;DHT22;1910;49.042;9.028;2023-01-16T00:33:48;3.40;99.90
3790;DHT22;1910;49.042;9.028;2023-01-16T00:36:14;3.40;99.90
3790;DHT22;1910;49.042;9.028;2023-01-16T00:38:39;3.40;99.90
3790;DHT22;1910;49.042;9.028;2023-01-16T00:41:05;3.50;99.90
3790;DHT22;1910;49.042;9.028;2023-01-16T00:43:31;3.60;99.90
3790;DHT22;1910;49.042;9.028;2023-01-16T00:45:57;3.70;99.90
3790;DHT22;1910;49.042;9.028;2023-01-16T00:48:23;3.70;99.90
3790;DHT22;1910;49.042;9.028;2023-01-16T00:50:49;3.60;99.90
3790;DHT22;1910;49.042;9.028;2023-01-16T00:53:15;3.60;99.90
3790;DHT22;1910;49.042;9.028;2023-01-16T00:55:40;3.60;99.90
3790;DHT22;1910;49.042;9.028;2023-01-16T00:58:08;3.50;99.90
3790;DHT22;1910;49.042;9.028;2023-01-16T01:00:33;3.50;99.90
3790;DHT22;1910;49.042;9.028;2023-01-16T01:02:59;3.50;99.90
3790;DHT22;1910;49.042;9.028;2023-01-16T01:05:25;3.30;99.90
3790;DHT22;1910;49.042;9.028;2023-01-16T01:07:50;3.30;99.90
3790;DHT22;1910;49.042;9.028;2023-01-16T01:10:17;3.20;99.90
3790;DHT22;1910;49.042;9.028;2023-01-16T01:12:42;3.20;99.90
3790;DHT22;1910;49.042;9.028;2023-01-16T01:15:08;3.30;99.90
3790;DHT22;1910;49.042;9.028;2023-01-16T01:17:34;3.30;99.90
3790;DHT22;1910;49.042;9.028;2023-01-16T01:19:59;3.30;99.90
3790;DHT22;1910;49.042;9.028;2023-01-16T01:22:25;3.40;99.90
3790;DHT22;1910;49.042;9.028;2023-01-16T01:24:52;3.40;99.90
3790;DHT22;1910;49.042;9.028;2023-01-16T01:27:17;3.40;99.90
3790;DHT22;1910;49.042;9.028;2023-01-16T01:29:43;3.40;99.90
3790;DHT22;1910;49.042;9.028;2023-01-16T01:32:09;3.40;99.90
3790;DHT22;1910;49.042;9.028;2023-01-16T01:34:34;3.30;99.90
3790;DHT22;1910;49.042;9.028;2023-01-16T01:37:01;3.30;99.90
3790;DHT22;1910;49.042;9.028;2023-01-16T01:39:27;3.30;99.90
3790;DHT22;1910;49.042;9.028;2023-01-16T01:41:52;3.20;99.90
3790;DHT22;1910;49.042;9.028;2023-01-16T01:44:53;3.30;99.90
3790;DHT22;1910;49.042;9.028;2023-01-16T01:47:31;3.20;99.90
3790;DHT22;1910;49.042;9.028;2023-01-16T01:49:59;3.20;99.90
3790;DHT22;1910;49.042;9.028;2023-01-16T01:52:26;3.10;99.90
3790;DHT22;1910;49.042;9.028;2023-01-16T01:54:56;3.00;99.90
3790;DHT22;1910;49.042;9.028;2023-01-16T01:57:28;2.90;99.90
3790;DHT22;1910;49.042;9.028;2023-01-16T02:00:04;3.00;99.90
3790;DHT22;1910;49.042;9.028;2023-01-16T02:02:34;3.00;99.90
3790;DHT22;1910;49.042;9.028;2023-01-16T02:05:03;2.90;99.90
3790;DHT22;1910;49.042;9.028;2023-01-16T02:07:29;2.90;99.90
3790;DHT22;1910;49.042;9.028;2023-01-16T02:10:09;2.90;99.90
3790;DHT22;1910;49.042;9.028;2023-01-16T02:12:35;2.90;99.90
3790;DHT22;1910;49.042;9.028;2023-01-16T02:15:02;2.90;99.90
3790;DHT22;1910;49.042;9.028;2023-01-16T02:17:27;2.90;99.90
3790;DHT22;1910;49.042;9.028;2023-01-16T02:20:23;2.90;99.90
3790;DHT22;1910;49.042;9.028;2023-01-16T02:26:15;2.80;99.90
3790;DHT22;1910;49.042;9.028;2023-01-16T02:29:19;2.80;99.90
3790;DHT22;1910;49.042;9.028;2023-01-16T02:32:16;2.80;99.90
3790;DHT22;1910;49.042;9.028;2023-01-16T02:45:54;2.80;99.90
3790;DHT22;1910;49.042;9.028;2023-01-16T02:51:34;3.00;99.90
3790;DHT22;1910;49.042;9.028;2023-01-16T02:54:26;3.00;99.90
3790;DHT22;1910;49.042;9.028;2023-01-16T02:57:01;2.90;99.90
3790;DHT22;1910;49.042;9.028;2023-01-16T02:59:29;3.00;99.90
3790;DHT22;1910;49.042;9.028;2023-01-16T03:01:56;3.10;99.90
3790;DHT22;1910;49.042;9.028;2023-01-16T03:04:51;3.10;99.90
3790;DHT22;1910;49.042;9.028;2023-01-16T03:26:56;3.20;99.90
3790;DHT22;1910;49.042;9.028;2023-01-16T03:29:31;3.20;99.90
3790;DHT22;1910;49.042;9.028;2023-01-16T03:32:08;3.20;99.90
3790;DHT22;1910;49.042;9.028;2023-01-16T03:35:08;3.20;99.90
3790;DHT22;1910;49.042;9.028;2023-01-16T03:38:01;3.30;99.90
3790;DHT22;1910;49.042;9.028;2023-01-16T03:40:28;3.40;99.90
3790;DHT22;1910;49.042;9.028;2023-01-16T03:48:16;3.50;99.90
3790;DHT22;1910;49.042;9.028;2023-01-16T03:50:52;3.40;99.90
3790;DHT22;1910;49.042;9.028;2023-01-16T03:53:21;3.40;99.90
3790;DHT22;1910;49.042;9.028;2023-01-16T03:56:13;3.50;99.90
3790;DHT22;1910;49.042;9.028;2023-01-16T03:58:43;3.60;99.90
3790;DHT22;1910;49.042;9.028;2023-01-16T04:01:20;3.70;99.90
3790;DHT22;1910;49.042;9.028;2023-01-16T04:04:01;3.80;99.90
3790;DHT22;1910;49.042;9.028;2023-01-16T04:06:33;3.80;99.90
3790;DHT22;1910;49.042;9.028;2023-01-16T04:09:05;3.70;99.90
3790;DHT22;1910;49.042;9.028;2023-01-16T04:11:33;3.80;99.90
3790;DHT22;1910;49.042;9.028;2023-01-16T04:14:01;3.80;99.90
3790;DHT22;1910;49.042;9.028;2023-01-16T04:16:28;3.90;99.90
3790;DHT22;1910;49.042;9.028;2023-01-16T04:18:55;3.90;99.90
3790;DHT22;1910;49.042;9.028;2023-01-16T04:21:26;3.90;99.90
3790;DHT22;1910;49.042;9.028;2023-01-16T04:23:54;3.90;99.90
3790;DHT22;1910;49.042;9.028;2023-01-16T04:26:20;4.00;99.90
3790;DHT22;1910;49.042;9.028;2023-01-16T04:28:46;4.00;99.90
3790;DHT22;1910;49.042;9.028;2023-01-16T04:31:11;4.00;99.90
3790;DHT22;1910;49.042;9.028;2023-01-16T04:33:37;4.00;99.90
3790;DHT22;1910;49.042;9.028;2023-01-16T04:36:02;4.10;99.90
3790;DHT22;1910;49.042;9.028;2023-01-16T04:38:28;4.10;99.90
3790;DHT22;1910;49.042;9.028;2023-01-16T04:40:54;4.10;99.90
3790;DHT22;1910;49.042;9.028;2023-01-16T04:43:20;4.00;99.90
3790;DHT22;1910;49.042;9.028;2023-01-16T04:45:46;3.90;99.90
3790;DHT22;1910;49.042;9.028;2023-01-16T04:48:12;3.80;99.90
3790;DHT22;1910;49.042;9.028;2023-01-16T04:50:37;3.80;99.90
3790;DHT22;1910;49.042;9.028;2023-01-16T04:53:03;3.70;99.90
3790;DHT22;1910;49.042;9.028;2023-01-16T04:55:29;3.60;99.90
3790;DHT22;1910;49.042;9.028;2023-01-16T04:57:54;3.50;99.90
3790;DHT22;1910;49.042;9.028;2023-01-16T05:00:20;3.50;99.90
3790;DHT22;1910;49.042;9.028;2023-01-16T05:02:46;3.50;99.90
3790;DHT22;1910;49.042;9.028;2023-01-16T05:05:11;3.50;99.90
3790;DHT22;1910;49.042;9.028;2023-01-16T05:07:37;3.40;99.90
3790;DHT22;1910;49.042;9.028;2023-01-16T05:10:02;3.30;99.90
3790;DHT22;1910;49.042;9.028;2023-01-16T05:12:28;3.30;99.90
3790;DHT22;1910;49.042;9.028;2023-01-16T05:14:53;3.30;99.90
3790;DHT22;1910;49.042;9.028;2023-01-16T05:17:19;3.20;99.90
3790;DHT22;1910;49.042;9.028;2023-01-16T05:19:49;3.20;99.90
3790;DHT22;1910;49.042;9.028;2023-01-16T05:22:15;3.20;99.90
3790;DHT22;1910;49.042;9.028;2023-01-16T05:24:40;3.20;99.90
3790;DHT22;1910;49.042;9.028;2023-01-16T05:27:06;3.20;99.90
3790;DHT22;1910;49.042;9.028;2023-01-16T05:29:31;3.10;99.90
3790;DHT22;1910;49.042;9.028;2023-01-16T05:31:57;3.00;99.90
3790;DHT22;1910;49.042;9.028;2023-01-16T05:34:22;3.00;99.90
3790;DHT22;1910;49.042;9.028;2023-01-16T05:36:48;2.90;99.90
3790;DHT22;1910;49.042;9.028;2023-01-16T05:39:14;2.90;99.90
3790;DHT22;1910;49.042;9.028;2023-01-16T05:41:40;2.90;99.90
3790;DHT22;1910;49.042;9.028;2023-01-16T05:44:05;2.90;99.90
3790;DHT22;1910;49.042;9.028;2023-01-16T05:46:31;3.00;99.90
3790;DHT22;1910;49.042;9.028;2023-01-16T05:48:56;3.00;99.90
3790;DHT22;1910;49.042;9.028;2023-01-16T05:51:22;2.90;99.90
3790;DHT22;1910;49.042;9.028;2023-01-16T05:53:51;2.90;99.90
3790;DHT22;1910;49.042;9.028;2023-01-16T05:56:20;2.90;99.90
3790;DHT22;1910;49.042;9.028;2023-01-16T05:58:46;2.90;99.90
3790;DHT22;1910;49.042;9.028;2023-01-16T06:01:12;2.90;99.90
3790;DHT22;1910;49.042;9.028;2023-01-16T06:03:38;3.00;99.90
3790;DHT22;1910;49.042;9.028;2023-01-16T06:06:05;3.10;99.90
3790;DHT22;1910;49.042;9.028;2023-01-16T06:08:31;3.10;99.90
3790;DHT22;1910;49.042;9.028;2023-01-16T06:10:57;3.10;99.90
3790;DHT22;1910;49.042;9.028;2023-01-16T06:13:23;3.10;99.90
3790;DHT22;1910;49.042;9.028;2023-01-16T06:15:48;3.10;99.90
3790;DHT22;1910;49.042;9.028;2023-01-16T06:18:14;3.20;99.90
3790;DHT22;1910;49.042;9.028;2023-01-16T06:20:40;3.10;99.90
3790;DHT22;1910;49.042;9.028;2023-01-16T06:23:06;3.20;99.90
3790;DHT22;1910;49.042;9.028;2023-01-16T06:25:31;3.10;99.90
3790;DHT22;1910;49.042;9.028;2023-01-16T06:27:57;3.10;99.90
3790;DHT22;1910;49.042;9.028;2023-01-16T06:30:22;3.10;99.90
3790;DHT22;1910;49.042;9.028;2023-01-16T06:32:48;3.00;99.90
3790;DHT22;1910;49.042;9.028;2023-01-16T06:35:15;3.00;99.90
3790;DHT22;1910;49.042;9.028;2023-01-16T06:37:42;2.90;99.90
3790;DHT22;1910;49.042;9.028;2023-01-16T06:40:08;2.90;99.90
3790;DHT22;1910;49.042;9.028;2023-01-16T06:42:35;2.80;99.90
3790;DHT22;1910;49.042;9.028;2023-01-16T06:45:00;2.70;99.90
3790;DHT22;1910;49.042;9.028;2023-01-16T06:47:26;2.80;99.90
3790;DHT22;1910;49.042;9.028;2023-01-16T06:49:53;2.80;99.90
3790;DHT22;1910;49.042;9.028;2023-01-16T06:52:18;2.80;99.90
3790;DHT22;1910;49.042;9.028;2023-01-16T06:54:44;2.90;99.90
3790;DHT22;1910;49.042;9.028;2023-01-16T06:57:09;2.80;99.90
3790;DHT22;1910;49.042;9.028;2023-01-16T06:59:35;2.80;99.90
3790;DHT22;1910;49.042;9.028;2023-01-16T07:02:00;2.80;99.90
3790;DHT22;1910;49.042;9.028;2023-01-16T07:04:26;2.70;99.90
3790;DHT22;1910;49.042;9.028;2023-01-16T07:06:51;2.70;99.90
3790;DHT22;1910;49.042;9.028;2023-01-16T07:09:18;2.70;99.90
3790;DHT22;1910;49.042;9.028;2023-01-16T07:11:43;2.80;99.90
3790;DHT22;1910;49.042;9.028;2023-01-16T07:14:09;2.80;99.90
3790;DHT22;1910;49.042;9.028;2023-01-16T07:16:54;2.80;99.90
3790;DHT22;1910;49.042;9.028;2023-01-16T07:19:38;2.80;99.90
3790;DHT22;1910;49.042;9.028;2023-01-16T07:22:23;2.80;99.90
3790;DHT22;1910;49.042;9.028;2023-01-16T07:25:03;2.80;99.90
3790;DHT22;1910;49.042;9.028;2023-01-16T07:27:31;2.80;99.90
3790;DHT22;1910;49.042;9.028;2023-01-16T07:29:57;2.90;99.90
3790;DHT22;1910;49.042;9.028;2023-01-16T07:32:23;2.90;99.90
3790;DHT22;1910;49.042;9.028;2023-01-16T07:34:49;2.90;99.90
3790;DHT22;1910;49.042;9.028;2023-01-16T07:37:14;2.90;99.90
3790;DHT22;1910;49.042;9.028;2023-01-16T07:39:40;3.00;99.90
3790;DHT22;1910;49.042;9.028;2023-01-16T07:42:06;3.10;99.90
3790;DHT22;1910;49.042;9.028;2023-01-16T07:44:32;3.10;99.90
3790;DHT22;1910;49.042;9.028;2023-01-16T07:46:58;3.20;99.90
3790;DHT22;1910;49.042;9.028;2023-01-16T07:49:23;3.20;99.90
3790;DHT22;1910;49.042;9.028;2023-01-16T07:51:49;3.20;99.90
3790;DHT22;1910;49.042;9.028;2023-01-16T07:54:14;3.20;99.90
3790;DHT22;1910;49.042;9.028;2023-01-16T07:56:40;3.30;99.90
3790;DHT22;1910;49.042;9.028;2023-01-16T07:59:06;3.30;99.90
3790;DHT22;1910;49.042;9.028;2023-01-16T08:01:32;3.30;99.90
3790;DHT22;1910;49.042;9.028;2023-01-16T08:03:59;3.30;99.90
3790;DHT22;1910;49.042;9.028;2023-01-16T08:06:25;3.30;99.90
3790;DHT22;1910;49.042;9.028;2023-01-16T08:08:50;3.30;99.90
3790;DHT22;1910;49.042;9.028;2023-01-16T08:11:16;3.40;99.90
3790;DHT22;1910;49.042;9.028;2023-01-16T08:14:01;3.40;99.90
3790;DHT22;1910;49.042;9.028;2023-01-16T08:16:27;3.40;99.90
3790;DHT22;1910;49.042;9.028;2023-01-16T08:18:53;3.50;99.90
3790;DHT22;1910;49.042;9.028;2023-01-16T08:21:18;3.50;99.90
3790;DHT22;1910;49.042;9.028;2023-01-16T08:23:47;3.60;99.90
3790;DHT22;1910;49.042;9.028;2023-01-16T08:26:13;3.50;99.90
3790;DHT22;1910;49.042;9.028;2023-01-16T08:28:39;3.50;99.90
3790;DHT22;1910;49.042;9.028;2023-01-16T08:31:10;3.60;99.90
3790;DHT22;1910;49.042;9.028;2023-01-16T08:33:40;3.60;99.90
3790;DHT22;1910;49.042;9.028;2023-01-16T08:36:08;3.70;99.90
3790;DHT22;1910;49.042;9.028;2023-01-16T08:38:34;3.70;99.90
3790;DHT22;1910;49.042;9.028;2023-01-16T08:41:00;3.70;99.90
3790;DHT22;1910;49.042;9.028;2023-01-16T08:43:26;3.70;99.90
3790;DHT22;1910;49.042;9.028;2023-01-16T08:46:22;3.80;99.90
3790;DHT22;1910;49.042;9.028;2023-01-16T08:49:11;3.80;99.90
3790;DHT22;1910;49.042;9.028;2023-01-16T08:51:57;3.90;99.90
3790;DHT22;1910;49.042;9.028;2023-01-16T08:54:23;4.00;99.90
3790;DHT22;1910;49.042;9.028;2023-01-16T08:56:48;3.90;99.90
3790;DHT22;1910;49.042;9.028;2023-01-16T08:59:14;3.90;99.90
3790;DHT22;1910;49.042;9.028;2023-01-16T09:01:39;4.00;99.90
3790;DHT22;1910;49.042;9.028;2023-01-16T09:04:06;3.90;99.90
3790;DHT22;1910;49.042;9.028;2023-01-16T09:06:32;3.90;99.90
3790;DHT22;1910;49.042;9.028;2023-01-16T09:09:02;3.90;99.90
3790;DHT22;1910;49.042;9.028;2023-01-16T09:11:28;3.90;99.90
3790;DHT22;1910;49.042;9.028;2023-01-16T09:14:12;3.90;99.90
3790;DHT22;1910;49.042;9.028;2023-01-16T09:16:38;3.80;99.90
3790;DHT22;1910;49.042;9.028;2023-01-16T09:19:03;3.90;99.90
3790;DHT22;1910;49.042;9.028;2023-01-16T09:21:29;4.00;99.90
3790;DHT22;1910;49.042;9.028;2023-01-16T09:23:55;4.00;99.90
3790;DHT22;1910;49.042;9.028;2023-01-16T09:26:20;4.00;99.90
3790;DHT22;1910;49.042;9.028;2023-01-16T09:28:46;4.10;99.90
3790;DHT22;1910;49.042;9.028;2023-01-16T09:31:11;4.00;99.90
3790;DHT22;1910;49.042;9.028;2023-01-16T09:33:37;4.00;99.90
3790;DHT22;1910;49.042;9.028;2023-01-16T09:36:03;4.00;99.90
3790;DHT22;1910;49.042;9.028;2023-01-16T09:38:29;3.90;99.90
3790;DHT22;1910;49.042;9.028;2023-01-16T09:40:57;4.00;99.90
3790;DHT22;1910;49.042;9.028;2023-01-16T09:43:38;4.00;99.90
3790;DHT22;1910;49.042;9.028;2023-01-16T09:46:24;4.10;99.90
3790;DHT22;1910;49.042;9.028;2023-01-16T09:49:01;4.10;99.90
3790;DHT22;1910;49.042;9.028;2023-01-16T09:51:32;4.20;99.90
3790;DHT22;1910;49.042;9.028;2023-01-16T09:54:21;4.20;99.90
3790;DHT22;1910;49.042;9.028;2023-01-16T09:57:12;4.20;99.90
3790;DHT22;1910;49.042;9.028;2023-01-16T09:59:57;4.30;99.90
3790;DHT22;1910;49.042;9.028;2023-01-16T10:02:27;4.40;99.90
3790;DHT22;1910;49.042;9.028;2023-01-16T10:04:55;4.50;99.90
3790;DHT22;1910;49.042;9.028;2023-01-16T10:12:21;4.70;99.90
3790;DHT22;1910;49.042;9.028;2023-01-16T10:20:36;4.80;99.90
3790;DHT22;1910;49.042;9.028;2023-01-16T10:23:42;4.90;99.90
3790;DHT22;1910;49.042;9.028;2023-01-16T10:32:04;5.00;99.90
3790;DHT22;1910;49.042;9.028;2023-01-16T10:35:24;5.00;99.90
3790;DHT22;1910;49.042;9.028;2023-01-16T10:37:44;5.10;99.90
3790;DHT22;1910;49.042;9.028;2023-01-16T10:40:15;5.10;99.90
3790;DHT22;1910;49.042;9.028;2023-01-16T10:42:42;5.10;99.90
3790;DHT22;1910;49.042;9.028;2023-01-16T10:45:35;5.10;99.90
3790;DHT22;1910;49.042;9.028;2023-01-16T10:48:20;5.20;99.90
3790;DHT22;1910;49.042;9.028;2023-01-16T10:51:05;5.20;99.90
3790;DHT22;1910;49.042;9.028;2023-01-16T10:53:33;5.20;99.90
3790;DHT22;1910;49.042;9.028;2023-01-16T10:56:00;5.20;99.90
3790;DHT22;1910;49.042;9.028;2023-01-16T10:58:28;5.30;99.90
3790;DHT22;1910;49.042;9.028;2023-01-16T11:03:41;5.30;99.90
3790;DHT22;1910;49.042;9.028;2023-01-16T11:06:09;5.40;99.90
3790;DHT22;1910;49.042;9.028;2023-01-16T11:08:35;5.30;99.90
3790;DHT22;1910;49.042;9.028;2023-01-16T11:11:01;5.40;99.90
3790;DHT22;1910;49.042;9.028;2023-01-16T11:13:28;5.30;99.90
3790;DHT22;1910;49.042;9.028;2023-01-16T11:19:18;5.50;99.90
3790;DHT22;1910;49.042;9.028;2023-01-16T11:21:49;5.50;99.90
3790;DHT22;1910;49.042;9.028;2023-01-16T11:24:19;5.70;99.90
3790;DHT22;1910;49.042;9.028;2023-01-16T11:26:49;5.70;99.90
3790;DHT22;1910;49.042;9.028;2023-01-16T11:29:17;5.70;99.90
3790;DHT22;1910;49.042;9.028;2023-01-16T11:31:48;6.00;99.90
3790;DHT22;1910;49.042;9.028;2023-01-16T11:34:18;5.80;99.90
3790;DHT22;1910;49.042;9.028;2023-01-16T11:36:44;6.00;99.90
3790;DHT22;1910;49.042;9.028;2023-01-16T11:39:19;5.90;99.90
3790;DHT22;1910;49.042;9.028;2023-01-16T11:41:50;6.00;99.90
3790;DHT22;1910;49.042;9.028;2023-01-16T11:44:21;6.00;99.90
3790;DHT22;1910;49.042;9.028;2023-01-16T11:47:10;6.00;99.90
3790;DHT22;1910;49.042;9.028;2023-01-16T11:49:40;6.10;99.90
3790;DHT22;1910;49.042;9.028;2023-01-16T11:52:12;6.10;99.90
3790;DHT22;1910;49.042;9.028;2023-01-16T11:54:38;6.10;99.90
3790;DHT22;1910;49.042;9.028;2023-01-16T11:57:25;6.10;99.90
3790;DHT22;1910;49.042;9.028;2023-01-16T12:00:20;6.10;99.90
3790;DHT22;1910;49.042;9.028;2023-01-16T12:02:52;6.20;99.90
3790;DHT22;1910;49.042;9.028;2023-01-16T12:11:11;6.20;99.90
3790;DHT22;1910;49.042;9.028;2023-01-16T12:13:55;6.20;99.90
3790;DHT22;1910;49.042;9.028;2023-01-16T12:25:08;6.30;99.90
3790;DHT22;1910;49.042;9.028;2023-01-16T12:27:59;6.30;99.90
3790;DHT22;1910;49.042;9.028;2023-01-16T12:30:32;6.30;99.90
3790;DHT22;1910;49.042;9.028;2023-01-16T12:33:10;6.30;99.90
3790;DHT22;1910;49.042;9.028;2023-01-16T12:36:07;6.30;99.90
3790;DHT22;1910;49.042;9.028;2023-01-16T12:38:46;6.30;99.90
3790;DHT22;1910;49.042;9.028;2023-01-16T12:41:51;6.30;99.90
3790;DHT22;1910;49.042;9.028;2023-01-16T12:53:05;6.50;99.90
3790;DHT22;1910;49.042;9.028;2023-01-16T12:58:11;6.70;99.90
3790;DHT22;1910;49.042;9.028;2023-01-16T13:00:44;6.50;99.90
3790;DHT22;1910;49.042;9.028;2023-01-16T13:05:39;6.60;99.90
3790;DHT22;1910;49.042;9.028;2023-01-16T13:08:31;6.50;99.90
3790;DHT22;1910;49.042;9.028;2023-01-16T13:11:04;6.50;99.90
3790;DHT22;1910;49.042;9.028;2023-01-16T13:13:57;6.50;99.90
3790;DHT22;1910;49.042;9.028;2023-01-16T13:16:41;6.50;99.90
3790;DHT22;1910;49.042;9.028;2023-01-16T13:22:02;6.70;99.90
3790;DHT22;1910;49.042;9.028;2023-01-16T13:24:34;6.80;99.90
3790;DHT22;1910;49.042;9.028;2023-01-16T13:27:05;6.60;99.90
3790;DHT22;1910;49.042;9.028;2023-01-16T13:29:54;6.60;99.90
3790;DHT22;1910;49.042;9.028;2023-01-16T13:32:33;6.60;99.90
3790;DHT22;1910;49.042;9.028;2023-01-16T13:35:13;6.70;99.90
3790;DHT22;1910;49.042;9.028;2023-01-16T13:40:21;6.70;99.90
3790;DHT22;1910;49.042;9.028;2023-01-16T13:42:52;6.70;99.90
3790;DHT22;1910;49.042;9.028;2023-01-16T13:45:32;6.60;99.90
3790;DHT22;1910;49.042;9.028;2023-01-16T13:48:14;6.70;99.90
3790;DHT22;1910;49.042;9.028;2023-01-16T13:50:47;6.80;99.90
3790;DHT22;1910;49.042;9.028;2023-01-16T13:53:14;6.80;99.90
3790;DHT22;1910;49.042;9.028;2023-01-16T13:55:40;6.80;99.90
3790;DHT22;1910;49.042;9.028;2023-01-16T13:58:23;6.80;99.90
3790;DHT22;1910;49.042;9.028;2023-01-16T14:01:00;6.90;99.90
3790;DHT22;1910;49.042;9.028;2023-01-16T14:03:29;6.80;99.90
3790;DHT22;1910;49.042;9.028;2023-01-16T14:06:16;6.80;99.90
3790;DHT22;1910;49.042;9.028;2023-01-16T14:09:19;6.80;99.90
3790;DHT22;1910;49.042;9.028;2023-01-16T14:18:16;7.00;99.90
3790;DHT22;1910;49.042;9.028;2023-01-16T14:20:43;7.00;99.90
3790;DHT22;1910;49.042;9.028;2023-01-16T14:23:17;7.10;99.90
3790;DHT22;1910;49.042;9.028;2023-01-16T14:26:02;7.20;99.90
3790;DHT22;1910;49.042;9.028;2023-01-16T14:28:29;7.20;99.90
3790;DHT22;1910;49.042;9.028;2023-01-16T14:30:57;7.00;99.90
3790;DHT22;1910;49.042;9.028;2023-01-16T14:33:23;6.80;99.90
3790;DHT22;1910;49.042;9.028;2023-01-16T14:35:51;6.80;99.90
3790;DHT22;1910;49.042;9.028;2023-01-16T14:38:20;6.90;99.90
3790;DHT22;1910;49.042;9.028;2023-01-16T14:40:54;6.80;99.90
3790;DHT22;1910;49.042;9.028;2023-01-16T14:43:46;6.70;99.90
3790;DHT22;1910;49.042;9.028;2023-01-16T14:46:53;6.70;99.90
3790;DHT22;1910;49.042;9.028;2023-01-16T14:58:43;6.50;99.90
3790;DHT22;1910;49.042;9.028;2023-01-16T15:01:27;6.40;99.90
3790;DHT22;1910;49.042;9.028;2023-01-16T15:04:18;6.30;99.90
3790;DHT22;1910;49.042;9.028;2023-01-16T15:06:52;6.30;99.90
3790;DHT22;1910;49.042;9.028;2023-01-16T15:09:19;6.20;99.90
3790;DHT22;1910;49.042;9.028;2023-01-16T15:14:21;6.00;99.90
3790;DHT22;1910;49.042;9.028;2023-01-16T15:17:17;6.00;99.90
3790;DHT22;1910;49.042;9.028;2023-01-16T15:20:16;5.90;99.90
3790;DHT22;1910;49.042;9.028;2023-01-16T15:23:14;5.80;99.90
3790;DHT22;1910;49.042;9.028;2023-01-16T15:31:25;5.60;99.90
3790;DHT22;1910;49.042;9.028;2023-01-16T15:34:06;5.60;99.90
3790;DHT22;1910;49.042;9.028;2023-01-16T15:36:45;5.60;99.90
3790;DHT22;1910;49.042;9.028;2023-01-16T15:39:30;5.60;99.90
3790;DHT22;1910;49.042;9.028;2023-01-16T15:42:16;5.50;99.90
3790;DHT22;1910;49.042;9.028;2023-01-16T15:45:14;5.60;99.90
3790;DHT22;1910;49.042;9.028;2023-01-16T15:48:26;5.60;99.90
3790;DHT22;1910;49.042;9.028;2023-01-16T15:50:55;5.60;99.90
3790;DHT22;1910;49.042;9.028;2023-01-16T15:53:38;5.60;99.90
3790;DHT22;1910;49.042;9.028;2023-01-16T15:56:18;5.50;99.90
3790;DHT22;1910;49.042;9.028;2023-01-16T15:58:44;5.50;99.90
3790;DHT22;1910;49.042;9.028;2023-01-16T16:01:13;5.50;99.90
3790;DHT22;1910;49.042;9.028;2023-01-16T16:03:47;5.50;99.90
3790;DHT22;1910;49.042;9.028;2023-01-16T16:06:16;5.50;99.90
3790;DHT22;1910;49.042;9.028;2023-01-16T16:08:46;5.50;99.90
3790;DHT22;1910;49.042;9.028;2023-01-16T16:11:20;5.40;99.90
3790;DHT22;1910;49.042;9.028;2023-01-16T16:14:05;5.40;99.90
3790;DHT22;1910;49.042;9.028;2023-01-16T16:17:01;5.20;99.90
3790;DHT22;1910;49.042;9.028;2023-01-16T16:19:46;5.10;99.90
3790;DHT22;1910;49.042;9.028;2023-01-16T16:22:21;5.10;99.90
3790;DHT22;1910;49.042;9.028;2023-01-16T16:25:17;5.00;99.90
3790;DHT22;1910;49.042;9.028;2023-01-16T16:27:43;4.80;99.90
3790;DHT22;1910;49.042;9.028;2023-01-16T16:30:26;4.80;99.90
3790;DHT22;1910;49.042;9.028;2023-01-16T16:32:53;4.70;99.90
3790;DHT22;1910;49.042;9.028;2023-01-16T16:35:28;4.80;99.90
3790;DHT22;1910;49.042;9.028;2023-01-16T16:37:55;4.70;99.90
3790;DHT22;1910;49.042;9.028;2023-01-16T16:40:21;4.70;99.90
3790;DHT22;1910;49.042;9.028;2023-01-16T16:42:50;4.70;99.90
3790;DHT22;1910;49.042;9.028;2023-01-16T16:45:23;4.60;99.90
3790;DHT22;1910;49.042;9.028;2023-01-16T16:48:28;4.60;99.90
3790;DHT22;1910;49.042;9.028;2023-01-16T16:51:10;4.60;99.90
3790;DHT22;1910;49.042;9.028;2023-01-16T16:53:38;4.50;99.90
3790;DHT22;1910;49.042;9.028;2023-01-16T16:56:17;4.50;99.90
3790;DHT22;1910;49.042;9.028;2023-01-16T16:58:47;4.50;99.90
3790;DHT22;1910;49.042;9.028;2023-01-16T17:01:15;4.50;99.90
3790;DHT22;1910;49.042;9.028;2023-01-16T17:03:42;4.40;99.90
3790;DHT22;1910;49.042;9.028;2023-01-16T17:06:13;4.30;99.90
3790;DHT22;1910;49.042;9.028;2023-01-16T17:08:39;4.30;99.90
3790;DHT22;1910;49.042;9.028;2023-01-16T17:11:04;4.30;99.90
3790;DHT22;1910;49.042;9.028;2023-01-16T17:13:30;4.20;99.90
3790;DHT22;1910;49.042;9.028;2023-01-16T17:15:56;4.20;99.90
3790;DHT22;1910;49.042;9.028;2023-01-16T17:18:24;4.20;99.90
3790;DHT22;1910;49.042;9.028;2023-01-16T17:20:50;4.10;99.90
3790;DHT22;1910;49.042;9.028;2023-01-16T17:23:18;4.10;99.90
3790;DHT22;1910;49.042;9.028;2023-01-16T17:25:44;4.10;99.90
3790;DHT22;1910;49.042;9.028;2023-01-16T17:28:11;4.10;99.90
3790;DHT22;1910;49.042;9.028;2023-01-16T17:30:37;4.10;99.90
3790;DHT22;1910;49.042;9.028;2023-01-16T17:33:06;4.10;99.90
3790;DHT22;1910;49.042;9.028;2023-01-16T17:35:40;4.10;99.90
3790;DHT22;1910;49.042;9.028;2023-01-16T17:38:15;4.10;99.90
3790;DHT22;1910;49.042;9.028;2023-01-16T17:40:41;4.20;99.90
3790;DHT22;1910;49.042;9.028;2023-01-16T17:43:20;4.20;99.90
3790;DHT22;1910;49.042;9.028;2023-01-16T17:46:12;4.20;99.90
3790;DHT22;1910;49.042;9.028;2023-01-16T17:48:41;4.20;99.90
3790;DHT22;1910;49.042;9.028;2023-01-16T17:51:06;4.20;99.90
3790;DHT22;1910;49.042;9.028;2023-01-16T17:53:32;4.20;99.90
3790;DHT22;1910;49.042;9.028;2023-01-16T17:56:04;4.20;99.90
3790;DHT22;1910;49.042;9.028;2023-01-16T17:58:35;4.20;99.90
3790;DHT22;1910;49.042;9.028;2023-01-16T18:01:14;4.30;99.90
3790;DHT22;1910;49.042;9.028;2023-01-16T18:03:47;4.30;99.90
3790;DHT22;1910;49.042;9.028;2023-01-16T18:06:15;4.30;99.90
3790;DHT22;1910;49.042;9.028;2023-01-16T18:08:42;4.30;99.90
3790;DHT22;1910;49.042;9.028;2023-01-16T18:11:07;4.30;99.90
3790;DHT22;1910;49.042;9.028;2023-01-16T18:13:52;4.30;99.90
3790;DHT22;1910;49.042;9.028;2023-01-16T18:16:37;4.30;99.90
3790;DHT22;1910;49.042;9.028;2023-01-16T18:19:21;4.40;99.90
3790;DHT22;1910;49.042;9.028;2023-01-16T18:21:47;4.40;99.90
3790;DHT22;1910;49.042;9.028;2023-01-16T18:24:37;4.30;99.90
3790;DHT22;1910;49.042;9.028;2023-01-16T18:27:05;4.30;99.90
3790;DHT22;1910;49.042;9.028;2023-01-16T18:29:31;4.30;99.90
3790;DHT22;1910;49.042;9.028;2023-01-16T18:31:57;4.30;99.90
3790;DHT22;1910;49.042;9.028;2023-01-16T18:34:41;4.30;99.90
3790;DHT22;1910;49.042;9.028;2023-01-16T18:37:07;4.40;99.90
3790;DHT22;1910;49.042;9.028;2023-01-16T18:39:32;4.40;99.90
3790;DHT22;1910;49.042;9.028;2023-01-16T18:42:17;4.50;99.90
3790;DHT22;1910;49.042;9.028;2023-01-16T18:45:01;4.50;99.90
3790;DHT22;1910;49.042;9.028;2023-01-16T18:47:45;4.50;99.90
3790;DHT22;1910;49.042;9.028;2023-01-16T18:50:29;4.50;99.90
3790;DHT22;1910;49.042;9.028;2023-01-16T18:53:29;4.50;99.90